createdAt,value
2024-03-16T00:01:43.307Z,93089.28
2024-03-16T00:04:11.424Z,93091.09
2024-03-16T00:06:38.975Z,93100.50
2024-03-16T00:09:06.423Z,93091.69
2024-03-16T00:11:33.937Z,93093.41
2024-03-16T00:14:04.488Z,93089.88
2024-03-16T00:16:33.331Z,93088.53
2024-03-16T00:19:00.824Z,93093.63
2024-03-16T00:21:28.258Z,93098.31
2024-03-16T00:23:55.811Z,93093.63
2024-03-16T00:26:23.428Z,93093.22
2024-03-16T00:28:52.166Z,93096.22
2024-03-16T00:31:19.761Z,93094.94
2024-03-16T00:33:47.828Z,93087.78
2024-03-16T00:36:16.411Z,93094.84
2024-03-16T00:38:45.199Z,93090.63
2024-03-16T00:41:12.710Z,93095.22
2024-03-16T00:43:40.094Z,93088.97
2024-03-16T00:46:07.568Z,93083.13
2024-03-16T00:48:35.068Z,93079.28
2024-03-16T00:51:03.151Z,93086.19
2024-03-16T00:53:30.769Z,93080.03
2024-03-16T00:56:00.198Z,93081.22
2024-03-16T00:58:28.609Z,93080.75
2024-03-16T01:00:56.423Z,93079.94
2024-03-16T01:03:23.963Z,93076.91
2024-03-16T01:05:52.535Z,93073.22
2024-03-16T01:08:19.922Z,93069.72
2024-03-16T01:10:47.385Z,93080.19
2024-03-16T01:13:14.860Z,93081.41
2024-03-16T01:15:42.417Z,93067.13
2024-03-16T01:18:09.870Z,93071.00
2024-03-16T01:20:37.212Z,93064.03
2024-03-16T01:23:06.116Z,93069.47
2024-03-16T01:25:33.508Z,93059.00
2024-03-16T01:28:01.048Z,93062.59
2024-03-16T01:30:28.458Z,93071.00
2024-03-16T01:32:55.947Z,93076.38
2024-03-16T01:35:23.603Z,93066.38
2024-03-16T01:37:52.217Z,93062.53
2024-03-16T01:40:25.792Z,93065.56
2024-03-16T01:42:53.931Z,93068.72
2024-03-16T01:45:21.326Z,93073.75
2024-03-16T01:47:48.790Z,93059.94
2024-03-16T01:50:19.490Z,93067.22
2024-03-16T01:52:47.925Z,93068.00
2024-03-16T01:55:15.505Z,93065.75
2024-03-16T01:57:43.002Z,93068.44
2024-03-16T02:00:13.110Z,93060.78
2024-03-16T02:02:41.115Z,93062.31
2024-03-16T02:05:08.837Z,93055.75
2024-03-16T02:07:36.221Z,93066.56
2024-03-16T02:10:09.919Z,93067.34
2024-03-16T02:12:37.645Z,93063.47
2024-03-16T02:15:06.172Z,93075.81
2024-03-16T02:17:33.942Z,93069.28
2024-03-16T02:20:01.435Z,93061.22
2024-03-16T02:22:28.745Z,93068.81
2024-03-16T02:24:56.870Z,93069.63
2024-03-16T02:27:25.402Z,93068.09
2024-03-16T02:29:52.753Z,93066.94
2024-03-16T02:32:20.163Z,93068.84
2024-03-16T02:34:48.202Z,93063.09
2024-03-16T02:37:15.862Z,93073.13
2024-03-16T02:39:44.115Z,93070.41
2024-03-16T02:42:11.487Z,93065.03
2024-03-16T02:44:41.994Z,93073.88
2024-03-16T02:47:11.325Z,93076.19
2024-03-16T02:49:38.633Z,93073.47
2024-03-16T02:52:06.255Z,93075.38
2024-03-16T02:54:34.563Z,93067.69
2024-03-16T02:57:02.036Z,93067.31
2024-03-16T02:59:30.970Z,93074.22
2024-03-16T03:01:58.615Z,93067.28
2024-03-16T03:04:26.131Z,93072.69
2024-03-16T03:06:53.721Z,93074.22
2024-03-16T03:09:21.529Z,93078.13
2024-03-16T03:11:49.264Z,93080.84
2024-03-16T03:14:16.656Z,93081.22
2024-03-16T03:16:44.865Z,93080.75
2024-03-16T03:19:12.442Z,93083.41
2024-03-16T03:21:39.897Z,93080.69
2024-03-16T03:24:07.331Z,93079.50
2024-03-16T03:26:35.067Z,93090.38
2024-03-16T03:29:02.977Z,93089.56
2024-03-16T03:31:30.265Z,93088.00
2024-03-16T03:33:57.627Z,93092.31
2024-03-16T03:36:24.975Z,93088.03
2024-03-16T03:38:52.350Z,93086.13
2024-03-16T03:41:19.937Z,93093.50
2024-03-16T03:43:58.911Z,93085.03
2024-03-16T03:46:51.459Z,93096.56
2024-03-16T03:49:30.970Z,93103.44
2024-03-16T03:51:58.747Z,93093.00
2024-03-16T03:54:26.350Z,93101.88
2024-03-16T03:56:53.964Z,93095.66
2024-03-16T03:59:23.117Z,93082.56
2024-03-16T04:01:50.753Z,93097.22
2024-03-16T04:04:18.217Z,93099.47
2024-03-16T04:06:46.720Z,93095.25
2024-03-16T04:09:14.542Z,93097.56
2024-03-16T04:11:42.007Z,93096.03
2024-03-16T04:14:09.508Z,93091.69
2024-03-16T04:16:36.920Z,93094.03
2024-03-16T04:19:05.122Z,93093.34
2024-03-16T04:21:32.705Z,93102.34
2024-03-16T04:24:00.183Z,93106.91
2024-03-16T04:26:28.141Z,93100.75
2024-03-16T04:28:55.589Z,93098.44
2024-03-16T04:31:23.023Z,93098.84
2024-03-16T04:33:52.395Z,93103.84
2024-03-16T04:36:20.024Z,93109.66
2024-03-16T04:38:47.325Z,93108.53
2024-03-16T04:41:14.754Z,93104.28
2024-03-16T04:43:42.475Z,93110.44
2024-03-16T04:46:10.092Z,93096.97
2024-03-16T04:48:37.616Z,93108.13
2024-03-16T04:51:05.228Z,93110.44
2024-03-16T04:53:32.624Z,93110.81
2024-03-16T04:56:00.024Z,93101.97
2024-03-16T04:58:27.576Z,93107.28
2024-03-16T05:00:55.187Z,93106.91
2024-03-16T05:03:23.489Z,93098.81
2024-03-16T05:05:52.731Z,93096.50
2024-03-16T05:08:20.159Z,93108.91
2024-03-16T05:10:51.952Z,93111.22
2024-03-16T05:13:19.401Z,93101.97
2024-03-16T05:15:46.951Z,93097.75
2024-03-16T05:18:15.663Z,93103.94
2024-03-16T05:20:43.266Z,93101.25
2024-03-16T05:23:10.766Z,93100.09
2024-03-16T05:25:40.937Z,93107.34
2024-03-16T05:28:08.440Z,93110.50
2024-03-16T05:30:36.251Z,93115.50
2024-03-16T05:33:03.841Z,93117.41
2024-03-16T05:35:31.202Z,93123.59
2024-03-16T05:37:58.620Z,93125.88
2024-03-16T05:40:26.179Z,93128.56
2024-03-16T05:42:53.702Z,93126.66
2024-03-16T05:45:22.096Z,93127.44
2024-03-16T05:47:49.611Z,93131.69
2024-03-16T05:50:17.000Z,93125.91
2024-03-16T06:02:34.606Z,93150.16
2024-03-16T06:05:02.409Z,93138.22
2024-03-16T06:07:29.797Z,93149.75
2024-03-16T06:09:57.550Z,93153.22
2024-03-16T06:12:32.009Z,93152.84
2024-03-16T06:14:59.865Z,93160.94
2024-03-16T06:17:28.018Z,93162.06
2024-03-16T06:19:55.725Z,93158.63
2024-03-16T06:22:24.062Z,93155.91
2024-03-16T06:24:53.125Z,93159.00
2024-03-16T06:27:23.705Z,93143.59
2024-03-16T06:29:56.308Z,93157.06
2024-03-16T06:32:26.948Z,93182.09
2024-03-16T06:34:54.932Z,93169.75
2024-03-16T06:37:22.567Z,93172.84
2024-03-16T06:39:50.466Z,93171.69
2024-03-16T06:42:18.638Z,93165.94
2024-03-16T06:44:46.062Z,93187.88
2024-03-16T06:47:13.738Z,93193.66
2024-03-16T06:49:42.056Z,93187.47
2024-03-16T06:52:10.753Z,93194.78
2024-03-16T06:54:38.170Z,93197.09
2024-03-16T06:57:05.744Z,93199.03
2024-03-16T06:59:33.106Z,93202.88
2024-03-16T07:02:00.705Z,93206.31
2024-03-16T07:04:31.438Z,93202.84
2024-03-16T07:06:59.032Z,93190.16
2024-03-16T07:09:26.620Z,93194.75
2024-03-16T07:11:54.959Z,93203.63
2024-03-16T07:14:22.537Z,93210.94
2024-03-16T07:16:50.102Z,93205.19
2024-03-16T07:19:19.420Z,93212.09
2024-03-16T07:21:47.091Z,93223.66
2024-03-16T07:24:16.354Z,93223.66
2024-03-16T07:26:44.196Z,93227.13
2024-03-16T07:29:11.798Z,93230.59
2024-03-16T07:31:39.253Z,93228.25
2024-03-16T07:34:06.707Z,93225.94
2024-03-16T07:36:34.741Z,93226.31
2024-03-16T07:39:02.266Z,93236.34
2024-03-16T07:41:29.704Z,93228.25
2024-03-16T07:43:57.002Z,93245.16
2024-03-16T07:46:24.959Z,93242.84
2024-03-16T07:48:52.500Z,93246.72
2024-03-16T07:51:21.076Z,93242.53
2024-03-16T07:53:48.489Z,93241.34
2024-03-16T07:56:16.474Z,93242.50
2024-03-16T07:58:43.814Z,93239.84
2024-03-16T08:01:11.549Z,93242.94
2024-03-16T08:03:39.035Z,93244.44
2024-03-16T08:06:08.778Z,93245.59
2024-03-16T08:08:36.549Z,93258.28
2024-03-16T08:11:05.374Z,93244.03
2024-03-16T08:13:33.215Z,93265.94
2024-03-16T08:16:00.830Z,93263.22
2024-03-16T08:18:28.516Z,93265.16
2024-03-16T08:20:58.764Z,93267.09
2024-03-16T08:23:26.284Z,93265.56
2024-03-16T08:25:53.747Z,93269.44
2024-03-16T08:28:21.247Z,93269.81
2024-03-16T08:30:49.233Z,93274.78
2024-03-16T08:33:17.156Z,93262.50
2024-03-16T08:35:45.934Z,93276.75
2024-03-16T08:38:13.572Z,93267.53
2024-03-16T08:40:41.002Z,93267.50
2024-03-16T08:43:08.712Z,93264.84
2024-03-16T08:45:39.061Z,93265.22
2024-03-16T08:48:07.450Z,93275.22
2024-03-16T08:50:36.069Z,93275.22
2024-03-16T08:53:03.460Z,93283.25
2024-03-16T08:55:30.894Z,93275.22
2024-03-16T08:57:58.315Z,93276.78
2024-03-16T09:00:26.263Z,93274.09
2024-03-16T09:02:53.667Z,93279.09
2024-03-16T09:05:22.306Z,93273.69
2024-03-16T09:07:49.696Z,93272.94
2024-03-16T09:10:18.588Z,93272.19
2024-03-16T09:12:48.092Z,93267.16
2024-03-16T09:15:16.933Z,93278.34
2024-03-16T09:17:44.545Z,93282.19
2024-03-16T09:20:12.592Z,93275.63
2024-03-16T09:22:40.205Z,93290.25
2024-03-16T09:25:09.368Z,93289.88
2024-03-16T09:27:37.130Z,93292.97
2024-03-16T09:30:12.548Z,93294.13
2024-03-16T09:32:40.866Z,93295.66
2024-03-16T09:35:11.600Z,93307.97
2024-03-16T09:37:39.423Z,93304.53
2024-03-16T09:40:12.495Z,93311.47
2024-03-16T09:42:40.373Z,93306.50
